createdAt,value
2019-01-09T00:02:27.457Z,4.47
2019-01-09T00:05:08.566Z,9.07
2019-01-09T00:07:49.131Z,6.33
2019-01-09T00:10:30.006Z,9.30
2019-01-09T00:13:10.345Z,3.97
2019-01-09T00:15:50.987Z,6.43
2019-01-09T00:18:31.234Z,6.47
2019-01-09T00:21:11.999Z,5.93
2019-01-09T00:23:52.775Z,6.13
2019-01-09T00:26:35.378Z,3.13
2019-01-09T00:29:16.535Z,4.33
2019-01-09T00:31:57.585Z,5.00
2019-01-09T00:34:38.470Z,3.27
2019-01-09T00:37:19.022Z,5.03
2019-01-09T00:39:59.550Z,4.83
2019-01-09T00:42:40.183Z,6.70
2019-01-09T00:45:21.155Z,6.80
2019-01-09T00:48:01.912Z,6.53
2019-01-09T00:50:42.262Z,6.80
2019-01-09T00:56:08.480Z,5.97
2019-01-09T00:58:48.652Z,4.67
2019-01-09T01:01:29.844Z,4.17
2019-01-09T01:04:11.418Z,7.53
2019-01-09T01:06:54.092Z,6.83
2019-01-09T01:09:35.006Z,3.57
2019-01-09T01:12:16.702Z,4.70
2019-01-09T01:14:57.357Z,5.20
2019-01-09T01:17:37.761Z,6.20
2019-01-09T01:20:20.696Z,5.80
2019-01-09T01:23:01.121Z,3.97
2019-01-09T01:25:41.976Z,7.33
2019-01-09T01:28:22.734Z,3.80
2019-01-09T01:31:03.022Z,7.40
2019-01-09T01:33:45.496Z,7.00
2019-01-09T01:36:26.545Z,7.10
2019-01-09T01:39:07.238Z,6.83
2019-01-09T01:41:48.031Z,3.63
2019-01-09T01:44:30.228Z,5.30
2019-01-09T01:47:10.481Z,5.07
2019-01-09T01:49:51.000Z,5.50
2019-01-09T01:52:33.574Z,5.57
2019-01-09T01:55:14.282Z,4.40
2019-01-09T01:57:57.898Z,5.17
2019-01-09T02:00:40.818Z,4.63
2019-01-09T02:06:13.776Z,5.13
2019-01-09T02:08:54.560Z,4.40
2019-01-09T02:11:37.324Z,3.57
2019-01-09T02:14:18.164Z,5.60
2019-01-09T02:16:58.633Z,4.40
2019-01-09T02:19:40.001Z,6.50
2019-01-09T02:22:20.706Z,4.40
2019-01-09T02:25:01.281Z,4.13
2019-01-09T02:27:42.625Z,5.67
2019-01-09T02:30:23.487Z,3.87
2019-01-09T02:33:07.343Z,4.83
2019-01-09T02:35:48.225Z,2.47
2019-01-09T02:38:29.354Z,3.03
2019-01-09T02:41:10.663Z,5.10
2019-01-09T02:43:51.392Z,4.20
2019-01-09T02:46:32.904Z,3.87
2019-01-09T02:49:13.365Z,2.40
2019-01-09T02:51:54.393Z,4.83
2019-01-09T02:54:35.207Z,4.63
2019-01-09T02:57:16.035Z,5.43
2019-01-09T02:59:57.316Z,5.73
2019-01-09T03:02:38.340Z,8.10
2019-01-09T03:05:19.983Z,5.13
2019-01-09T03:08:01.280Z,7.33
2019-01-09T03:10:41.966Z,7.20
2019-01-09T03:13:22.554Z,9.50
2019-01-09T03:16:04.554Z,5.97
2019-01-09T03:18:46.619Z,4.83
2019-01-09T03:21:29.234Z,4.77
2019-01-09T03:24:09.442Z,4.03
2019-01-09T03:26:50.240Z,5.57
2019-01-09T03:29:30.939Z,4.60
2019-01-09T03:32:14.061Z,5.13
2019-01-09T03:34:54.629Z,7.33
2019-01-09T03:37:36.358Z,8.40
2019-01-09T03:40:18.735Z,5.93
2019-01-09T03:43:01.199Z,6.33
2019-01-09T03:45:41.650Z,5.93
2019-01-09T03:48:22.230Z,6.67
2019-01-09T03:51:04.065Z,6.80
2019-01-09T03:53:47.433Z,7.60
2019-01-09T03:56:28.177Z,5.30
2019-01-09T03:59:12.275Z,7.43
2019-01-09T04:01:52.973Z,3.97
2019-01-09T04:04:33.478Z,5.30
2019-01-09T04:07:14.790Z,4.17
2019-01-09T04:09:55.449Z,5.83
2019-01-09T04:12:36.482Z,5.67
2019-01-09T04:15:17.087Z,4.90
2019-01-09T04:17:58.427Z,6.60
2019-01-09T04:20:39.200Z,7.00
2019-01-09T04:23:21.233Z,4.73
2019-01-09T04:26:02.254Z,3.67
2019-01-09T04:28:42.838Z,6.17
2019-01-09T04:31:23.464Z,8.10
2019-01-09T04:34:04.099Z,5.20
2019-01-09T04:36:51.351Z,6.70
2019-01-09T04:39:27.336Z,4.73
2019-01-09T04:42:08.468Z,6.50
2019-01-09T04:44:49.175Z,7.40
2019-01-09T04:47:30.305Z,6.77
2019-01-09T04:50:14.251Z,3.83
2019-01-09T04:52:54.846Z,4.70
2019-01-09T04:55:36.108Z,5.07
2019-01-09T04:58:16.567Z,5.97
2019-01-09T05:00:58.291Z,10.27
2019-01-09T05:03:39.345Z,5.80
2019-01-09T05:06:20.803Z,4.80
2019-01-09T05:09:01.543Z,5.33
2019-01-09T05:11:42.228Z,6.13
2019-01-09T05:14:22.783Z,4.97
2019-01-09T05:17:05.630Z,4.70
2019-01-09T05:19:46.016Z,7.77
2019-01-09T05:22:27.163Z,6.30
2019-01-09T05:25:08.021Z,9.57
2019-01-09T05:27:49.074Z,7.70
2019-01-09T05:30:30.120Z,5.40
2019-01-09T05:33:10.713Z,3.90
2019-01-09T05:35:52.009Z,6.03
2019-01-09T05:38:33.353Z,4.90
2019-01-09T05:41:13.771Z,7.93
2019-01-09T05:43:54.720Z,4.70
2019-01-09T05:46:35.379Z,5.53
2019-01-09T05:49:15.991Z,6.47
2019-01-09T05:51:57.018Z,9.97
2019-01-09T05:54:37.731Z,8.00
2019-01-09T05:57:18.077Z,6.10
2019-01-09T05:59:58.862Z,6.77
2019-01-09T06:02:39.728Z,5.73
2019-01-09T06:05:21.286Z,5.97
2019-01-09T06:08:01.992Z,6.17
2019-01-09T06:10:42.787Z,8.17
2019-01-09T06:13:23.435Z,5.60
2019-01-09T06:16:04.036Z,7.07
2019-01-09T06:18:46.272Z,5.27
2019-01-09T06:21:30.323Z,5.07
2019-01-09T06:26:56.621Z,5.07
2019-01-09T06:29:37.303Z,5.97
2019-01-09T06:32:18.069Z,6.03
2019-01-09T06:34:59.432Z,7.57
2019-01-09T06:37:41.899Z,7.30
2019-01-09T06:40:22.981Z,6.63
2019-01-09T06:43:04.213Z,4.27
2019-01-09T06:45:45.163Z,7.10
2019-01-09T06:48:26.678Z,7.00
2019-01-09T06:51:10.299Z,7.50
2019-01-09T06:53:51.206Z,5.40
2019-01-09T06:56:32.036Z,6.00
2019-01-09T06:59:12.884Z,3.00
2019-01-09T07:01:55.961Z,4.07
2019-01-09T07:04:37.307Z,6.87
2019-01-09T07:07:17.915Z,5.43
2019-01-09T07:10:00.900Z,8.00
2019-01-09T07:12:41.887Z,6.47
2019-01-09T07:18:06.418Z,4.73
2019-01-09T07:20:46.722Z,7.13
2019-01-09T07:23:27.761Z,9.20
2019-01-09T07:26:09.003Z,13.53
2019-01-09T07:28:49.056Z,5.53
2019-01-09T07:31:29.943Z,11.07
2019-01-09T07:34:10.496Z,5.10
2019-01-09T07:36:54.010Z,8.93
2019-01-09T07:39:34.724Z,4.43
2019-01-09T07:42:15.727Z,6.27
2019-01-09T07:48:09.463Z,13.97
2019-01-09T07:50:51.026Z,8.53
2019-01-09T07:53:31.682Z,8.30
2019-01-09T07:56:13.067Z,8.87
2019-01-09T07:58:54.195Z,5.17
2019-01-09T08:01:35.117Z,6.07
2019-01-09T08:04:16.103Z,5.30
2019-01-09T08:06:57.301Z,5.50
2019-01-09T08:09:37.982Z,11.73
2019-01-09T08:12:18.467Z,6.20
2019-01-09T08:15:01.738Z,10.30
2019-01-09T08:17:41.947Z,10.27
2019-01-09T08:20:24.694Z,7.67
2019-01-09T08:23:05.666Z,6.63
2019-01-09T08:25:46.166Z,10.03
2019-01-09T08:28:26.586Z,12.47
2019-01-09T08:31:08.358Z,9.93
2019-01-09T08:33:49.823Z,7.80
2019-01-09T08:36:30.261Z,27.30
2019-01-09T08:39:11.077Z,24.17
2019-01-09T08:41:54.251Z,14.17
2019-01-09T08:44:36.881Z,8.93
2019-01-09T08:47:20.470Z,10.90
2019-01-09T08:50:01.122Z,12.67
2019-01-09T08:52:42.130Z,7.87
2019-01-09T08:55:22.523Z,9.00
2019-01-09T08:58:03.259Z,11.57
2019-01-09T09:00:45.266Z,8.20
2019-01-09T09:03:26.093Z,8.57
2019-01-09T09:06:07.078Z,7.73
2019-01-09T09:08:48.135Z,9.43
2019-01-09T09:11:28.811Z,8.90
2019-01-09T09:14:09.228Z,9.43
2019-01-09T09:16:49.582Z,5.17
2019-01-09T09:19:31.234Z,10.07
2019-01-09T09:22:11.614Z,9.97
2019-01-09T09:24:52.172Z,10.20
2019-01-09T09:27:35.405Z,7.97
2019-01-09T09:30:17.225Z,13.27
2019-01-09T09:32:59.129Z,6.60
2019-01-09T09:35:40.126Z,7.50
2019-01-09T09:38:21.032Z,10.43
2019-01-09T09:41:03.655Z,9.73
2019-01-09T09:43:44.364Z,9.57
2019-01-09T09:46:25.030Z,7.13
2019-01-09T09:49:05.410Z,6.93
2019-01-09T09:54:34.309Z,38.17
2019-01-09T09:57:15.780Z,24.50
2019-01-09T09:59:59.035Z,10.40
2019-01-09T10:02:39.335Z,12.40
2019-01-09T10:05:20.398Z,9.23
2019-01-09T10:08:01.594Z,10.30
2019-01-09T10:10:42.962Z,6.70
2019-01-09T10:13:23.789Z,9.03
2019-01-09T10:16:04.774Z,5.70
2019-01-09T10:18:45.651Z,11.53
2019-01-09T10:21:28.641Z,7.93
2019-01-09T10:24:09.323Z,9.47
2019-01-09T10:26:54.190Z,8.67
2019-01-09T10:29:35.994Z,9.53
2019-01-09T10:32:16.955Z,7.03
2019-01-09T10:34:57.441Z,10.13
2019-01-09T10:37:37.704Z,9.03
2019-01-09T10:40:18.379Z,7.90
2019-01-09T10:42:59.621Z,8.33
2019-01-09T10:45:40.809Z,9.47
2019-01-09T10:48:21.054Z,7.37
2019-01-09T10:51:01.566Z,10.57
2019-01-09T10:53:42.129Z,10.43
2019-01-09T10:56:23.282Z,10.17
2019-01-09T10:59:04.333Z,8.67
2019-01-09T11:01:45.154Z,10.60
2019-01-09T11:04:25.941Z,7.00
2019-01-09T11:07:06.713Z,4.93
2019-01-09T11:09:49.445Z,4.83
2019-01-09T11:12:32.926Z,5.97
2019-01-09T11:15:14.163Z,6.17
2019-01-09T11:17:54.875Z,6.67
2019-01-09T11:20:35.472Z,12.87
2019-01-09T11:23:16.265Z,9.77
2019-01-09T11:25:56.937Z,6.23
2019-01-09T11:28:37.980Z,6.43
2019-01-09T11:31:18.889Z,4.40
2019-01-09T11:36:44.608Z,9.43
2019-01-09T11:39:26.031Z,10.70
2019-01-09T11:42:06.695Z,8.23
2019-01-09T11:44:49.589Z,5.60
2019-01-09T11:47:30.287Z,5.73
2019-01-09T11:50:11.399Z,14.30
2019-01-09T11:55:30.931Z,14.50
2019-01-09T11:58:11.717Z,17.77
2019-01-09T12:00:52.619Z,13.10
2019-01-09T12:03:33.708Z,16.80
2019-01-09T12:06:14.414Z,10.47
2019-01-09T12:09:04.296Z,6.33
2019-01-09T12:11:40.628Z,10.20
2019-01-09T12:14:20.980Z,6.60
2019-01-09T12:19:52.954Z,6.33
2019-01-09T12:22:33.238Z,26.07
2019-01-09T12:25:13.866Z,8.77
2019-01-09T12:27:55.353Z,9.37
2019-01-09T12:30:35.729Z,9.13
2019-01-09T12:33:16.725Z,24.60
2019-01-09T12:35:57.646Z,12.83
2019-01-09T12:38:37.906Z,17.57
2019-01-09T12:41:18.920Z,13.60
2019-01-09T12:43:59.534Z,9.03
2019-01-09T12:46:40.492Z,16.00
2019-01-09T12:49:21.579Z,14.13
2019-01-09T12:52:02.143Z,17.50
2019-01-09T12:54:42.859Z,10.43
2019-01-09T12:57:23.754Z,11.23
2019-01-09T13:00:04.641Z,7.50
2019-01-09T13:02:45.222Z,9.33
2019-01-09T13:05:26.083Z,9.63
2019-01-09T13:08:07.049Z,8.23
2019-01-09T13:10:47.732Z,8.23
2019-01-09T13:13:29.194Z,7.67
2019-01-09T13:16:09.542Z,4.63
2019-01-09T13:18:50.466Z,6.37
2019-01-09T13:21:30.968Z,5.93
2019-01-09T13:24:11.456Z,9.80
2019-01-09T13:26:52.398Z,3.57
2019-01-09T13:29:33.099Z,5.87
2019-01-09T13:32:14.280Z,7.23
2019-01-09T13:34:55.458Z,8.37
2019-01-09T13:37:36.066Z,6.40
2019-01-09T13:40:16.627Z,8.23
2019-01-09T13:42:57.431Z,5.17
2019-01-09T13:45:37.934Z,5.30
2019-01-09T13:48:18.590Z,5.80
2019-01-09T13:51:00.690Z,4.27
2019-01-09T14:02:52.811Z,5.07
2019-01-09T14:08:17.680Z,5.13
2019-01-09T14:10:58.361Z,3.53
2019-01-09T14:13:41.214Z,5.27
2019-01-09T14:16:23.690Z,3.37
2019-01-09T14:19:04.695Z,8.50
2019-01-09T14:21:45.052Z,6.00
2019-01-09T14:24:28.259Z,8.07
2019-01-09T14:27:09.051Z,9.33
2019-01-09T14:29:49.654Z,5.27
2019-01-09T14:32:30.831Z,7.27
2019-01-09T14:35:11.250Z,6.87
2019-01-09T14:37:52.657Z,7.73
2019-01-09T14:40:37.334Z,5.40
2019-01-09T14:43:18.432Z,4.00
2019-01-09T14:45:59.142Z,4.50
2019-01-09T14:48:41.567Z,8.13
2019-01-09T14:51:22.018Z,9.33
2019-01-09T14:54:02.953Z,11.60
2019-01-09T14:56:44.156Z,9.37
2019-01-09T14:59:24.605Z,10.83
2019-01-09T15:02:05.666Z,8.23
2019-01-09T15:04:46.972Z,13.17
2019-01-09T15:07:27.946Z,8.63
2019-01-09T15:10:08.619Z,7.23
2019-01-09T15:15:35.745Z,7.50
2019-01-09T15:18:16.288Z,5.03
2019-01-09T15:20:57.076Z,7.43
2019-01-09T15:23:37.991Z,9.43
2019-01-09T15:26:18.906Z,6.47
2019-01-09T15:28:59.532Z,4.00
2019-01-09T15:31:40.221Z,4.97
2019-01-09T15:34:21.341Z,7.90
2019-01-09T15:37:02.107Z,4.77
2019-01-09T15:39:43.666Z,6.00
2019-01-09T15:42:23.849Z,6.23
2019-01-09T15:45:05.037Z,5.23
2019-01-09T15:47:45.444Z,5.73
2019-01-09T15:50:26.385Z,2.60
2019-01-09T15:53:07.155Z,4.20
2019-01-09T15:55:48.141Z,5.80
2019-01-09T15:58:29.437Z,4.13
2019-01-09T16:01:12.434Z,3.67
2019-01-09T16:03:53.024Z,5.23
2019-01-09T16:06:35.563Z,3.13
2019-01-09T16:09:44.843Z,3.57
2019-01-09T16:12:32.614Z,5.00
2019-01-09T16:15:20.435Z,3.00
2019-01-09T16:18:08.674Z,3.70
2019-01-09T16:26:45.071Z,3.70
2019-01-09T16:29:34.046Z,4.50
2019-01-09T16:32:22.808Z,4.70
2019-01-09T16:35:10.647Z,5.93
2019-01-09T16:37:58.405Z,5.80
2019-01-09T16:40:46.531Z,8.07
2019-01-09T16:43:34.283Z,5.43
2019-01-09T16:46:41.629Z,4.37
2019-01-09T16:49:29.575Z,6.93
2019-01-09T16:51:58.112Z,4.40
2019-01-09T16:54:46.184Z,5.87
2019-01-09T16:57:34.263Z,7.63
2019-01-09T17:00:43.350Z,8.13
2019-01-09T17:03:45.735Z,4.83
2019-01-09T17:06:22.761Z,5.83
2019-01-09T17:09:10.594Z,7.27
2019-01-09T17:11:58.779Z,8.07
2019-01-09T17:14:47.071Z,7.27
2019-01-09T17:17:34.905Z,7.70
2019-01-09T17:20:43.456Z,5.97
2019-01-09T17:23:31.551Z,5.40
2019-01-09T17:26:19.335Z,6.53
2019-01-09T17:29:06.769Z,9.27
2019-01-09T17:31:55.944Z,4.47
2019-01-09T17:34:43.699Z,5.57
2019-01-09T17:37:46.891Z,5.00
2019-01-09T17:40:23.355Z,8.07
2019-01-09T17:43:13.274Z,7.53
2019-01-09T17:46:01.246Z,7.93
2019-01-09T17:48:49.057Z,6.10
2019-01-09T17:51:29.782Z,9.27
2019-01-09T17:54:10.097Z,10.00
2019-01-09T17:56:50.923Z,9.83
2019-01-09T17:59:32.657Z,7.40
2019-01-09T18:02:13.804Z,9.57
2019-01-09T18:04:54.764Z,10.90
2019-01-09T18:07:35.509Z,8.27
2019-01-09T18:10:16.169Z,7.87
2019-01-09T18:15:59.254Z,8.47
2019-01-09T18:18:47.386Z,8.73
2019-01-09T18:21:35.468Z,9.30
2019-01-09T18:24:23.280Z,10.60
2019-01-09T18:27:11.055Z,14.03
2019-01-09T18:29:58.789Z,8.50
2019-01-09T18:33:07.295Z,7.60
2019-01-09T18:36:17.517Z,8.20
2019-01-09T18:39:25.992Z,8.90
2019-01-09T18:42:33.082Z,9.63
2019-01-09T18:45:41.576Z,7.03
2019-01-09T18:48:50.057Z,10.03
2019-01-09T18:51:32.104Z,9.97
2019-01-09T18:54:12.950Z,9.23
2019-01-09T18:56:54.242Z,13.50
2019-01-09T18:59:34.961Z,11.73
2019-01-09T19:02:15.835Z,5.67
2019-01-09T19:04:56.182Z,8.80
2019-01-09T19:07:37.059Z,7.20
2019-01-09T19:10:17.866Z,7.73
2019-01-09T19:12:59.309Z,10.77
2019-01-09T19:15:40.339Z,8.07
2019-01-09T19:18:20.755Z,7.57
2019-01-09T19:21:01.677Z,12.23
2019-01-09T19:23:42.873Z,13.17
2019-01-09T19:26:25.038Z,15.40
2019-01-09T19:29:05.986Z,13.77
2019-01-09T19:31:46.514Z,12.10
2019-01-09T19:34:27.009Z,12.37
2019-01-09T19:37:08.205Z,12.80
2019-01-09T19:39:48.940Z,12.27
2019-01-09T19:42:30.182Z,11.47
2019-01-09T19:45:10.750Z,10.57
2019-01-09T19:47:51.428Z,12.47
2019-01-09T19:50:31.892Z,10.97
2019-01-09T19:53:12.584Z,9.00
2019-01-09T19:55:53.298Z,9.03
2019-01-09T19:58:34.165Z,14.40
2019-01-09T20:01:14.728Z,65.40
2019-01-09T20:03:55.406Z,36.70
2019-01-09T20:06:36.111Z,13.03
2019-01-09T20:09:17.352Z,20.67
2019-01-09T20:11:57.740Z,29.60
2019-01-09T20:14:38.712Z,14.03
2019-01-09T20:17:19.405Z,29.53
2019-01-09T20:20:01.450Z,34.03
2019-01-09T20:22:42.220Z,13.77
2019-01-09T20:25:24.866Z,16.03
2019-01-09T20:28:05.490Z,15.23
2019-01-09T20:30:46.355Z,25.93
2019-01-09T20:33:26.931Z,34.17
2019-01-09T20:36:07.557Z,35.17
2019-01-09T20:38:48.525Z,53.83
2019-01-09T20:41:35.403Z,19.87
2019-01-09T20:44:14.403Z,11.80
2019-01-09T20:46:56.027Z,10.03
2019-01-09T20:49:37.398Z,13.23
2019-01-09T20:58:34.385Z,14.33
2019-01-09T21:01:14.783Z,12.10
2019-01-09T21:03:55.484Z,11.87
2019-01-09T21:06:36.489Z,12.87
2019-01-09T21:09:17.108Z,12.37
2019-01-09T21:11:57.871Z,10.47
2019-01-09T21:14:38.666Z,19.70
2019-01-09T21:17:19.556Z,13.57
2019-01-09T21:20:00.015Z,16.33
2019-01-09T21:22:40.820Z,19.53
2019-01-09T21:25:21.762Z,15.00
2019-01-09T21:28:02.314Z,14.23
2019-01-09T21:30:42.838Z,14.60
2019-01-09T21:33:23.460Z,10.10
2019-01-09T21:36:06.419Z,14.90
2019-01-09T21:38:47.113Z,10.87
2019-01-09T21:41:27.949Z,13.77
2019-01-09T21:44:15.794Z,12.13
2019-01-09T21:46:51.214Z,12.67
2019-01-09T21:49:31.953Z,13.53
2019-01-09T21:52:12.331Z,15.23
2019-01-09T21:54:53.130Z,10.70
2019-01-09T21:57:34.027Z,12.47
2019-01-09T22:00:16.780Z,13.87
2019-01-09T22:05:40.523Z,11.50
2019-01-09T22:08:24.786Z,12.13
2019-01-09T22:11:07.179Z,8.63
2019-01-09T22:13:47.613Z,10.07
2019-01-09T22:16:28.267Z,9.20
2019-01-09T22:19:12.029Z,8.90
2019-01-09T22:21:51.763Z,9.33
2019-01-09T22:24:32.611Z,9.90
2019-01-09T22:27:13.391Z,11.07
2019-01-09T22:29:53.749Z,12.03
2019-01-09T22:32:34.573Z,10.47
2019-01-09T22:35:15.250Z,14.90
2019-01-09T22:37:56.392Z,12.53
2019-01-09T22:40:36.843Z,12.23
2019-01-09T22:43:17.413Z,21.37
2019-01-09T22:45:58.310Z,54.97
2019-01-09T22:48:38.915Z,38.83
2019-01-09T22:51:19.534Z,36.27
2019-01-09T22:54:00.395Z,29.40
2019-01-09T22:56:41.318Z,35.90
2019-01-09T22:59:21.824Z,29.27
2019-01-09T23:02:02.878Z,17.97
2019-01-09T23:04:43.483Z,20.53
2019-01-09T23:07:24.042Z,17.47
2019-01-09T23:10:04.788Z,17.07
2019-01-09T23:12:45.390Z,16.43
2019-01-09T23:15:25.971Z,12.90
2019-01-09T23:18:06.618Z,14.37
2019-01-09T23:20:47.015Z,9.77
2019-01-09T23:23:27.944Z,13.10
2019-01-09T23:26:08.664Z,12.97
2019-01-09T23:28:49.434Z,14.17
2019-01-09T23:31:30.111Z,11.70
2019-01-09T23:34:10.940Z,9.20
2019-01-09T23:36:51.575Z,10.13
2019-01-09T23:39:32.638Z,14.57
2019-01-09T23:42:13.691Z,13.27
2019-01-09T23:44:54.711Z,11.23
2019-01-09T23:47:35.090Z,10.73
2019-01-09T23:50:15.724Z,10.33
2019-01-09T23:52:56.561Z,9.93
2019-01-09T23:55:37.056Z,9.73
2019-01-09T23:58:17.789Z,6.73
